sensor_id;sensor_type;location;lat;lon;timestamp;P1;durP1;ratioP1;P2;durP2;ratioP2
78672;SDS011;67988;60.086;30.354;2023-07-29T00:03:15;2.35;;;1.08;;
78672;SDS011;67988;60.086;30.354;2023-07-29T00:05:42;4.18;;;0.80;;
78672;SDS011;67988;60.086;30.354;2023-07-29T00:08:09;3.42;;;0.77;;
78672;SDS011;67988;60.086;30.354;2023-07-29T00:10:36;6.45;;;1.15;;
78672;SDS011;67988;60.086;30.354;2023-07-29T00:13:04;2.40;;;0.90;;
78672;SDS011;67988;60.086;30.354;2023-07-29T00:15:31;2.42;;;1.05;;
78672;SDS011;67988;60.086;30.354;2023-07-29T00:17:58;2.85;;;1.13;;
78672;SDS011;67988;60.086;30.354;2023-07-29T00:22:54;2.40;;;1.02;;
78672;SDS011;67988;60.086;30.354;2023-07-29T00:25:23;3.85;;;0.70;;
78672;SDS011;67988;60.086;30.354;2023-07-29T00:27:50;1.63;;;0.88;;
78672;SDS011;67988;60.086;30.354;2023-07-29T00:30:20;3.15;;;1.67;;
78672;SDS011;67988;60.086;30.354;2023-07-29T00:32:47;5.22;;;1.98;;
78672;SDS011;67988;60.086;30.354;2023-07-29T00:35:14;3.08;;;0.90;;
78672;SDS011;67988;60.086;30.354;2023-07-29T00:37:43;4.70;;;1.45;;
78672;SDS011;67988;60.086;30.354;2023-07-29T00:40:13;4.55;;;1.83;;
78672;SDS011;67988;60.086;30.354;2023-07-29T00:42:42;4.38;;;1.13;;
78672;SDS011;67988;60.086;30.354;2023-07-29T00:45:09;3.75;;;0.90;;
78672;SDS011;67988;60.086;30.354;2023-07-29T00:47:37;1.92;;;0.82;;
78672;SDS011;67988;60.086;30.354;2023-07-29T00:50:05;4.88;;;1.10;;
78672;SDS011;67988;60.086;30.354;2023-07-29T00:52:32;4.88;;;1.45;;
78672;SDS011;67988;60.086;30.354;2023-07-29T00:55:01;8.75;;;1.42;;
78672;SDS011;67988;60.086;30.354;2023-07-29T00:57:29;3.38;;;1.25;;
78672;SDS011;67988;60.086;30.354;2023-07-29T00:59:57;2.95;;;1.05;;
78672;SDS011;67988;60.086;30.354;2023-07-29T01:02:24;2.35;;;1.15;;
78672;SDS011;67988;60.086;30.354;2023-07-29T01:07:20;2.10;;;0.88;;
78672;SDS011;67988;60.086;30.354;2023-07-29T01:09:55;2.35;;;0.85;;
78672;SDS011;67988;60.086;30.354;2023-07-29T01:12:28;2.50;;;1.13;;
78672;SDS011;67988;60.086;30.354;2023-07-29T01:15:09;5.45;;;1.20;;
78672;SDS011;67988;60.086;30.354;2023-07-29T01:17:42;2.70;;;1.27;;
78672;SDS011;67988;60.086;30.354;2023-07-29T01:20:14;3.75;;;1.02;;
78672;SDS011;67988;60.086;30.354;2023-07-29T01:22:42;2.47;;;1.45;;
78672;SDS011;67988;60.086;30.354;2023-07-29T01:25:11;3.78;;;1.23;;
78672;SDS011;67988;60.086;30.354;2023-07-29T01:27:39;2.47;;;1.50;;
78672;SDS011;67988;60.086;30.354;2023-07-29T01:30:07;2.08;;;1.00;;
78672;SDS011;67988;60.086;30.354;2023-07-29T01:32:37;2.65;;;1.40;;
78672;SDS011;67988;60.086;30.354;2023-07-29T01:35:10;1.80;;;0.75;;
78672;SDS011;67988;60.086;30.354;2023-07-29T01:37:43;3.28;;;1.48;;
78672;SDS011;67988;60.086;30.354;2023-07-29T01:40:16;3.65;;;1.48;;
78672;SDS011;67988;60.086;30.354;2023-07-29T01:42:44;2.05;;;1.20;;
78672;SDS011;67988;60.086;30.354;2023-07-29T01:45:12;3.28;;;1.05;;
78672;SDS011;67988;60.086;30.354;2023-07-29T01:47:39;3.67;;;0.57;;
78672;SDS011;67988;60.086;30.354;2023-07-29T01:50:07;3.28;;;1.15;;
78672;SDS011;67988;60.086;30.354;2023-07-29T01:52:35;3.30;;;1.58;;
78672;SDS011;67988;60.086;30.354;2023-07-29T01:55:02;2.00;;;0.95;;
78672;SDS011;67988;60.086;30.354;2023-07-29T01:57:31;5.15;;;1.35;;
78672;SDS011;67988;60.086;30.354;2023-07-29T01:59:58;4.65;;;1.60;;
78672;SDS011;67988;60.086;30.354;2023-07-29T02:02:26;5.75;;;1.25;;
78672;SDS011;67988;60.086;30.354;2023-07-29T02:04:53;7.57;;;1.55;;
78672;SDS011;67988;60.086;30.354;2023-07-29T02:07:21;4.00;;;1.70;;
78672;SDS011;67988;60.086;30.354;2023-07-29T02:09:48;3.33;;;1.38;;
78672;SDS011;67988;60.086;30.354;2023-07-29T02:12:15;2.15;;;0.98;;
78672;SDS011;67988;60.086;30.354;2023-07-29T02:14:44;5.20;;;1.67;;
78672;SDS011;67988;60.086;30.354;2023-07-29T02:17:11;2.30;;;1.02;;
78672;SDS011;67988;60.086;30.354;2023-07-29T02:19:38;4.10;;;1.50;;
78672;SDS011;67988;60.086;30.354;2023-07-29T02:22:05;3.13;;;1.80;;
78672;SDS011;67988;60.086;30.354;2023-07-29T02:24:32;6.65;;;1.70;;
78672;SDS011;67988;60.086;30.354;2023-07-29T02:27:00;2.70;;;1.33;;
78672;SDS011;67988;60.086;30.354;2023-07-29T02:29:27;4.55;;;2.00;;
78672;SDS011;67988;60.086;30.354;2023-07-29T02:34:22;3.53;;;1.58;;
78672;SDS011;67988;60.086;30.354;2023-07-29T02:36:50;7.60;;;1.80;;
78672;SDS011;67988;60.086;30.354;2023-07-29T02:39:17;5.70;;;2.00;;
78672;SDS011;67988;60.086;30.354;2023-07-29T02:41:44;6.40;;;1.83;;
78672;SDS011;67988;60.086;30.354;2023-07-29T02:44:11;3.47;;;2.15;;
78672;SDS011;67988;60.086;30.354;2023-07-29T02:49:07;2.72;;;1.50;;
78672;SDS011;67988;60.086;30.354;2023-07-29T02:51:34;7.90;;;1.95;;
78672;SDS011;67988;60.086;30.354;2023-07-29T02:54:01;3.80;;;1.38;;
78672;SDS011;67988;60.086;30.354;2023-07-29T02:56:29;3.47;;;1.73;;
78672;SDS011;67988;60.086;30.354;2023-07-29T02:58:57;5.40;;;2.22;;
78672;SDS011;67988;60.086;30.354;2023-07-29T03:01:24;5.00;;;1.73;;
78672;SDS011;67988;60.086;30.354;2023-07-29T03:03:51;5.18;;;2.00;;
78672;SDS011;67988;60.086;30.354;2023-07-29T03:06:20;2.95;;;1.92;;
78672;SDS011;67988;60.086;30.354;2023-07-29T03:08:47;3.05;;;1.55;;
78672;SDS011;67988;60.086;30.354;2023-07-29T03:11:15;3.67;;;1.45;;
78672;SDS011;67988;60.086;30.354;2023-07-29T03:13:43;5.10;;;2.15;;
78672;SDS011;67988;60.086;30.354;2023-07-29T03:16:11;3.95;;;1.50;;
78672;SDS011;67988;60.086;30.354;2023-07-29T03:18:43;5.43;;;1.77;;
78672;SDS011;67988;60.086;30.354;2023-07-29T03:21:10;8.60;;;2.20;;
78672;SDS011;67988;60.086;30.354;2023-07-29T03:23:39;9.75;;;1.63;;
78672;SDS011;67988;60.086;30.354;2023-07-29T03:26:07;5.55;;;2.60;;
78672;SDS011;67988;60.086;30.354;2023-07-29T03:28:37;5.15;;;1.85;;
78672;SDS011;67988;60.086;30.354;2023-07-29T03:31:05;5.35;;;1.38;;
78672;SDS011;67988;60.086;30.354;2023-07-29T03:33:33;3.22;;;1.60;;
78672;SDS011;67988;60.086;30.354;2023-07-29T03:36:00;2.65;;;1.60;;
78672;SDS011;67988;60.086;30.354;2023-07-29T03:38:27;4.72;;;1.92;;
78672;SDS011;67988;60.086;30.354;2023-07-29T03:40:56;3.00;;;1.70;;
78672;SDS011;67988;60.086;30.354;2023-07-29T03:43:24;3.60;;;1.80;;
78672;SDS011;67988;60.086;30.354;2023-07-29T03:45:54;4.45;;;2.20;;
78672;SDS011;67988;60.086;30.354;2023-07-29T03:48:21;3.10;;;1.63;;
78672;SDS011;67988;60.086;30.354;2023-07-29T03:50:48;3.40;;;1.58;;
78672;SDS011;67988;60.086;30.354;2023-07-29T03:53:15;4.07;;;1.52;;
78672;SDS011;67988;60.086;30.354;2023-07-29T03:55:42;5.00;;;1.33;;
78672;SDS011;67988;60.086;30.354;2023-07-29T03:58:11;5.82;;;1.95;;
78672;SDS011;67988;60.086;30.354;2023-07-29T04:00:38;5.53;;;1.63;;
78672;SDS011;67988;60.086;30.354;2023-07-29T04:03:06;5.20;;;1.83;;
78672;SDS011;67988;60.086;30.354;2023-07-29T04:05:33;2.72;;;1.50;;
78672;SDS011;67988;60.086;30.354;2023-07-29T04:08:00;6.22;;;2.08;;
78672;SDS011;67988;60.086;30.354;2023-07-29T04:10:27;3.28;;;1.60;;
78672;SDS011;67988;60.086;30.354;2023-07-29T04:12:57;2.38;;;1.63;;
78672;SDS011;67988;60.086;30.354;2023-07-29T04:15:26;3.25;;;1.48;;
78672;SDS011;67988;60.086;30.354;2023-07-29T04:17:53;2.95;;;1.23;;
78672;SDS011;67988;60.086;30.354;2023-07-29T04:20:20;12.48;;;2.83;;
78672;SDS011;67988;60.086;30.354;2023-07-29T04:22:47;3.08;;;1.42;;
78672;SDS011;67988;60.086;30.354;2023-07-29T04:25:14;3.88;;;1.65;;
78672;SDS011;67988;60.086;30.354;2023-07-29T04:27:41;8.43;;;2.08;;
78672;SDS011;67988;60.086;30.354;2023-07-29T04:30:08;3.80;;;2.10;;
78672;SDS011;67988;60.086;30.354;2023-07-29T04:32:37;3.13;;;1.88;;
78672;SDS011;67988;60.086;30.354;2023-07-29T04:35:07;4.40;;;2.05;;
78672;SDS011;67988;60.086;30.354;2023-07-29T04:37:36;6.20;;;2.05;;
78672;SDS011;67988;60.086;30.354;2023-07-29T04:40:03;3.60;;;1.85;;
78672;SDS011;67988;60.086;30.354;2023-07-29T04:42:31;4.45;;;1.80;;
78672;SDS011;67988;60.086;30.354;2023-07-29T04:44:58;4.35;;;1.73;;
78672;SDS011;67988;60.086;30.354;2023-07-29T04:47:25;8.25;;;2.38;;
78672;SDS011;67988;60.086;30.354;2023-07-29T04:49:53;3.40;;;1.52;;
78672;SDS011;67988;60.086;30.354;2023-07-29T04:52:21;3.13;;;1.58;;
78672;SDS011;67988;60.086;30.354;2023-07-29T04:54:48;2.75;;;1.58;;
78672;SDS011;67988;60.086;30.354;2023-07-29T04:57:15;3.78;;;1.30;;
78672;SDS011;67988;60.086;30.354;2023-07-29T04:59:42;4.70;;;1.27;;
78672;SDS011;67988;60.086;30.354;2023-07-29T05:02:09;5.10;;;1.45;;
78672;SDS011;67988;60.086;30.354;2023-07-29T05:04:36;3.22;;;1.45;;
78672;SDS011;67988;60.086;30.354;2023-07-29T05:07:05;2.90;;;1.30;;
78672;SDS011;67988;60.086;30.354;2023-07-29T05:09:32;4.35;;;1.60;;
78672;SDS011;67988;60.086;30.354;2023-07-29T05:14:27;3.13;;;1.40;;
78672;SDS011;67988;60.086;30.354;2023-07-29T05:16:54;3.45;;;1.92;;
78672;SDS011;67988;60.086;30.354;2023-07-29T05:19:21;7.70;;;1.73;;
78672;SDS011;67988;60.086;30.354;2023-07-29T05:24:17;4.78;;;1.33;;
78672;SDS011;67988;60.086;30.354;2023-07-29T05:26:44;5.65;;;1.30;;
78672;SDS011;67988;60.086;30.354;2023-07-29T05:29:11;8.85;;;2.25;;
78672;SDS011;67988;60.086;30.354;2023-07-29T05:31:38;2.75;;;1.55;;
78672;SDS011;67988;60.086;30.354;2023-07-29T05:34:06;2.80;;;1.45;;
78672;SDS011;67988;60.086;30.354;2023-07-29T05:36:34;4.35;;;2.05;;
78672;SDS011;67988;60.086;30.354;2023-07-29T05:39:01;5.88;;;2.13;;
78672;SDS011;67988;60.086;30.354;2023-07-29T05:43:57;7.53;;;2.10;;
78672;SDS011;67988;60.086;30.354;2023-07-29T05:46:25;4.47;;;1.60;;
78672;SDS011;67988;60.086;30.354;2023-07-29T05:48:52;6.55;;;2.13;;
78672;SDS011;67988;60.086;30.354;2023-07-29T05:51:19;5.13;;;1.98;;
78672;SDS011;67988;60.086;30.354;2023-07-29T05:53:46;7.13;;;1.77;;
78672;SDS011;67988;60.086;30.354;2023-07-29T05:56:13;4.97;;;1.90;;
78672;SDS011;67988;60.086;30.354;2023-07-29T05:58:42;4.45;;;1.75;;
78672;SDS011;67988;60.086;30.354;2023-07-29T06:01:09;3.42;;;1.65;;
78672;SDS011;67988;60.086;30.354;2023-07-29T06:03:37;6.88;;;1.55;;
78672;SDS011;67988;60.086;30.354;2023-07-29T06:06:05;8.00;;;2.42;;
78672;SDS011;67988;60.086;30.354;2023-07-29T06:08:32;7.15;;;2.50;;
78672;SDS011;67988;60.086;30.354;2023-07-29T06:13:26;7.05;;;1.90;;
78672;SDS011;67988;60.086;30.354;2023-07-29T06:15:55;3.38;;;1.55;;
78672;SDS011;67988;60.086;30.354;2023-07-29T06:18:22;6.85;;;1.98;;
78672;SDS011;67988;60.086;30.354;2023-07-29T06:20:50;3.08;;;1.55;;
78672;SDS011;67988;60.086;30.354;2023-07-29T06:25:44;4.93;;;2.33;;
78672;SDS011;67988;60.086;30.354;2023-07-29T06:28:11;10.20;;;3.03;;
78672;SDS011;67988;60.086;30.354;2023-07-29T06:30:39;7.80;;;2.88;;
78672;SDS011;67988;60.086;30.354;2023-07-29T06:33:07;3.33;;;1.65;;
78672;SDS011;67988;60.086;30.354;2023-07-29T06:35:34;4.50;;;1.88;;
78672;SDS011;67988;60.086;30.354;2023-07-29T06:38:02;7.95;;;2.35;;
78672;SDS011;67988;60.086;30.354;2023-07-29T06:40:29;4.18;;;2.05;;
78672;SDS011;67988;60.086;30.354;2023-07-29T06:42:56;5.45;;;2.20;;
78672;SDS011;67988;60.086;30.354;2023-07-29T06:45:23;4.75;;;1.98;;
78672;SDS011;67988;60.086;30.354;2023-07-29T06:47:50;8.45;;;2.28;;
78672;SDS011;67988;60.086;30.354;2023-07-29T06:50:19;5.82;;;2.53;;
78672;SDS011;67988;60.086;30.354;2023-07-29T06:52:46;5.15;;;1.88;;
78672;SDS011;67988;60.086;30.354;2023-07-29T06:55:13;14.38;;;3.13;;
78672;SDS011;67988;60.086;30.354;2023-07-29T06:57:40;10.90;;;3.60;;
78672;SDS011;67988;60.086;30.354;2023-07-29T07:00:08;9.30;;;2.90;;
78672;SDS011;67988;60.086;30.354;2023-07-29T07:02:35;28.08;;;4.85;;
78672;SDS011;67988;60.086;30.354;2023-07-29T07:05:02;10.60;;;3.38;;
78672;SDS011;67988;60.086;30.354;2023-07-29T07:09:58;48.83;;;6.85;;
78672;SDS011;67988;60.086;30.354;2023-07-29T07:12:25;5.18;;;2.13;;
78672;SDS011;67988;60.086;30.354;2023-07-29T07:14:53;4.43;;;2.17;;
78672;SDS011;67988;60.086;30.354;2023-07-29T07:17:20;9.32;;;2.67;;
78672;SDS011;67988;60.086;30.354;2023-07-29T07:19:47;11.18;;;2.70;;
78672;SDS011;67988;60.086;30.354;2023-07-29T07:22:14;3.70;;;1.40;;
78672;SDS011;67988;60.086;30.354;2023-07-29T07:24:42;6.40;;;1.70;;
78672;SDS011;67988;60.086;30.354;2023-07-29T07:27:11;2.95;;;1.65;;
78672;SDS011;67988;60.086;30.354;2023-07-29T07:29:38;7.35;;;2.30;;
78672;SDS011;67988;60.086;30.354;2023-07-29T07:32:05;11.63;;;1.88;;
78672;SDS011;67988;60.086;30.354;2023-07-29T07:34:33;5.43;;;1.95;;
78672;SDS011;67988;60.086;30.354;2023-07-29T07:37:01;7.43;;;2.50;;
78672;SDS011;67988;60.086;30.354;2023-07-29T07:39:29;11.63;;;1.63;;
78672;SDS011;67988;60.086;30.354;2023-07-29T07:41:57;6.40;;;1.05;;
78672;SDS011;67988;60.086;30.354;2023-07-29T07:44:25;7.82;;;1.92;;
78672;SDS011;67988;60.086;30.354;2023-07-29T07:47:04;2.22;;;1.17;;
78672;SDS011;67988;60.086;30.354;2023-07-29T07:49:31;4.78;;;1.77;;
78672;SDS011;67988;60.086;30.354;2023-07-29T07:51:58;11.52;;;1.52;;
78672;SDS011;67988;60.086;30.354;2023-07-29T07:54:25;2.20;;;1.33;;
78672;SDS011;67988;60.086;30.354;2023-07-29T07:56:52;5.18;;;1.40;;
78672;SDS011;67988;60.086;30.354;2023-07-29T07:59:21;5.22;;;1.80;;
78672;SDS011;67988;60.086;30.354;2023-07-29T08:01:48;4.80;;;1.73;;
78672;SDS011;67988;60.086;30.354;2023-07-29T08:04:15;7.57;;;2.70;;
78672;SDS011;67988;60.086;30.354;2023-07-29T08:06:42;3.17;;;1.42;;
78672;SDS011;67988;60.086;30.354;2023-07-29T08:11:54;3.65;;;1.35;;
78672;SDS011;67988;60.086;30.354;2023-07-29T08:14:26;5.05;;;1.50;;
78672;SDS011;67988;60.086;30.354;2023-07-29T08:16:53;6.93;;;1.83;;
78672;SDS011;67988;60.086;30.354;2023-07-29T08:19:20;7.28;;;1.40;;
78672;SDS011;67988;60.086;30.354;2023-07-29T08:21:47;7.68;;;1.38;;
78672;SDS011;67988;60.086;30.354;2023-07-29T08:24:14;4.18;;;1.33;;
78672;SDS011;67988;60.086;30.354;2023-07-29T08:26:41;12.43;;;1.33;;
78672;SDS011;67988;60.086;30.354;2023-07-29T08:29:08;4.47;;;1.70;;
78672;SDS011;67988;60.086;30.354;2023-07-29T08:34:30;13.52;;;1.92;;
78672;SDS011;67988;60.086;30.354;2023-07-29T08:39:25;4.15;;;1.90;;
78672;SDS011;67988;60.086;30.354;2023-07-29T08:41:54;5.90;;;1.98;;
78672;SDS011;67988;60.086;30.354;2023-07-29T08:44:49;6.07;;;2.00;;
78672;SDS011;67988;60.086;30.354;2023-07-29T08:47:18;5.18;;;1.40;;
78672;SDS011;67988;60.086;30.354;2023-07-29T08:49:46;4.80;;;1.23;;
78672;SDS011;67988;60.086;30.354;2023-07-29T08:52:14;3.00;;;1.10;;
78672;SDS011;67988;60.086;30.354;2023-07-29T08:54:41;3.22;;;0.95;;
78672;SDS011;67988;60.086;30.354;2023-07-29T08:57:09;2.50;;;1.35;;
78672;SDS011;67988;60.086;30.354;2023-07-29T08:59:38;3.00;;;1.42;;
78672;SDS011;67988;60.086;30.354;2023-07-29T09:02:06;4.75;;;0.77;;
78672;SDS011;67988;60.086;30.354;2023-07-29T09:04:41;4.68;;;1.23;;
78672;SDS011;67988;60.086;30.354;2023-07-29T09:07:10;2.47;;;0.95;;
78672;SDS011;67988;60.086;30.354;2023-07-29T09:09:37;2.13;;;0.93;;
78672;SDS011;67988;60.086;30.354;2023-07-29T09:12:04;2.35;;;0.93;;
78672;SDS011;67988;60.086;30.354;2023-07-29T09:14:32;4.47;;;1.33;;
78672;SDS011;67988;60.086;30.354;2023-07-29T09:17:00;3.90;;;1.30;;
78672;SDS011;67988;60.086;30.354;2023-07-29T09:19:27;2.10;;;1.10;;
78672;SDS011;67988;60.086;30.354;2023-07-29T09:21:55;2.60;;;1.13;;
78672;SDS011;67988;60.086;30.354;2023-07-29T09:24:23;3.05;;;1.38;;
78672;SDS011;67988;60.086;30.354;2023-07-29T09:26:50;2.58;;;1.10;;
78672;SDS011;67988;60.086;30.354;2023-07-29T09:29:21;4.90;;;1.75;;
78672;SDS011;67988;60.086;30.354;2023-07-29T09:31:49;2.75;;;1.30;;
78672;SDS011;67988;60.086;30.354;2023-07-29T09:34:16;6.75;;;2.00;;
78672;SDS011;67988;60.086;30.354;2023-07-29T09:36:43;6.05;;;1.08;;
78672;SDS011;67988;60.086;30.354;2023-07-29T09:39:12;2.45;;;1.15;;
78672;SDS011;67988;60.086;30.354;2023-07-29T09:41:39;2.88;;;1.50;;
78672;SDS011;67988;60.086;30.354;2023-07-29T09:44:06;3.75;;;1.20;;
78672;SDS011;67988;60.086;30.354;2023-07-29T09:46:34;3.63;;;1.48;;
78672;SDS011;67988;60.086;30.354;2023-07-29T09:49:03;5.80;;;1.20;;
78672;SDS011;67988;60.086;30.354;2023-07-29T09:51:31;4.75;;;1.17;;
78672;SDS011;67988;60.086;30.354;2023-07-29T09:54:03;2.55;;;1.13;;
78672;SDS011;67988;60.086;30.354;2023-07-29T09:56:31;1.67;;;0.90;;
78672;SDS011;67988;60.086;30.354;2023-07-29T09:58:59;3.08;;;1.50;;
78672;SDS011;67988;60.086;30.354;2023-07-29T10:01:26;2.38;;;1.50;;
78672;SDS011;67988;60.086;30.354;2023-07-29T10:03:54;2.80;;;1.73;;
78672;SDS011;67988;60.086;30.354;2023-07-29T10:06:25;3.42;;;1.65;;
78672;SDS011;67988;60.086;30.354;2023-07-29T10:08:54;4.10;;;1.23;;
78672;SDS011;67988;60.086;30.354;2023-07-29T10:11:22;5.10;;;2.17;;
78672;SDS011;67988;60.086;30.354;2023-07-29T10:13:51;1.95;;;1.15;;
78672;SDS011;67988;60.086;30.354;2023-07-29T10:16:20;9.48;;;1.73;;
78672;SDS011;67988;60.086;30.354;2023-07-29T10:18:48;4.13;;;1.40;;
78672;SDS011;67988;60.086;30.354;2023-07-29T10:21:15;3.47;;;1.58;;
78672;SDS011;67988;60.086;30.354;2023-07-29T10:23:44;2.60;;;1.15;;
78672;SDS011;67988;60.086;30.354;2023-07-29T10:26:14;4.65;;;1.25;;
78672;SDS011;67988;60.086;30.354;2023-07-29T10:28:46;2.72;;;1.25;;
78672;SDS011;67988;60.086;30.354;2023-07-29T10:31:16;2.00;;;1.05;;
78672;SDS011;67988;60.086;30.354;2023-07-29T10:33:45;2.50;;;1.45;;
78672;SDS011;67988;60.086;30.354;2023-07-29T10:36:12;1.95;;;1.20;;
78672;SDS011;67988;60.086;30.354;2023-07-29T10:38:40;3.58;;;0.90;;
78672;SDS011;67988;60.086;30.354;2023-07-29T10:43:35;3.45;;;1.40;;
78672;SDS011;67988;60.086;30.354;2023-07-29T10:46:18;3.65;;;1.25;;
78672;SDS011;67988;60.086;30.354;2023-07-29T10:48:52;3.35;;;0.73;;
78672;SDS011;67988;60.086;30.354;2023-07-29T10:51:24;6.90;;;1.48;;
78672;SDS011;67988;60.086;30.354;2023-07-29T10:53:59;4.80;;;1.48;;
78672;SDS011;67988;60.086;30.354;2023-07-29T10:56:28;3.00;;;1.33;;
78672;SDS011;67988;60.086;30.354;2023-07-29T10:58:57;2.28;;;0.95;;
78672;SDS011;67988;60.086;30.354;2023-07-29T11:01:30;2.85;;;1.23;;
78672;SDS011;67988;60.086;30.354;2023-07-29T11:07:01;3.40;;;0.73;;
78672;SDS011;67988;60.086;30.354;2023-07-29T11:09:52;2.65;;;1.38;;
78672;SDS011;67988;60.086;30.354;2023-07-29T11:12:34;7.97;;;1.90;;
78672;SDS011;67988;60.086;30.354;2023-07-29T11:15:02;5.95;;;1.05;;
78672;SDS011;67988;60.086;30.354;2023-07-29T11:17:32;3.95;;;1.52;;
78672;SDS011;67988;60.086;30.354;2023-07-29T11:20:00;12.60;;;3.10;;
78672;SDS011;67988;60.086;30.354;2023-07-29T11:22:29;7.28;;;1.40;;
78672;SDS011;67988;60.086;30.354;2023-07-29T11:24:56;3.55;;;1.70;;
78672;SDS011;67988;60.086;30.354;2023-07-29T11:27:23;3.72;;;1.45;;
78672;SDS011;67988;60.086;30.354;2023-07-29T11:29:55;4.72;;;1.63;;
78672;SDS011;67988;60.086;30.354;2023-07-29T11:32:23;4.63;;;1.35;;
78672;SDS011;67988;60.086;30.354;2023-07-29T11:34:53;3.90;;;1.55;;
78672;SDS011;67988;60.086;30.354;2023-07-29T11:37:20;8.80;;;1.58;;
78672;SDS011;67988;60.086;30.354;2023-07-29T11:42:14;4.90;;;1.77;;
78672;SDS011;67988;60.086;30.354;2023-07-29T11:47:09;7.78;;;1.30;;
78672;SDS011;67988;60.086;30.354;2023-07-29T11:49:37;5.60;;;1.55;;
78672;SDS011;67988;60.086;30.354;2023-07-29T11:52:07;4.57;;;1.98;;
78672;SDS011;67988;60.086;30.354;2023-07-29T11:54:35;4.38;;;1.20;;
78672;SDS011;67988;60.086;30.354;2023-07-29T11:57:03;6.20;;;1.58;;
78672;SDS011;67988;60.086;30.354;2023-07-29T11:59:33;6.85;;;1.42;;
78672;SDS011;67988;60.086;30.354;2023-07-29T12:02:00;2.40;;;1.25;;
78672;SDS011;67988;60.086;30.354;2023-07-29T12:04:28;2.58;;;1.30;;
78672;SDS011;67988;60.086;30.354;2023-07-29T12:06:56;2.30;;;1.20;;
78672;SDS011;67988;60.086;30.354;2023-07-29T12:09:25;3.08;;;1.42;;
78672;SDS011;67988;60.086;30.354;2023-07-29T12:11:54;3.65;;;1.35;;
78672;SDS011;67988;60.086;30.354;2023-07-29T12:14:21;4.28;;;1.08;;
78672;SDS011;67988;60.086;30.354;2023-07-29T12:19:17;9.45;;;1.80;;
78672;SDS011;67988;60.086;30.354;2023-07-29T12:21:44;3.25;;;1.02;;
78672;SDS011;67988;60.086;30.354;2023-07-29T12:24:12;4.88;;;0.85;;
78672;SDS011;67988;60.086;30.354;2023-07-29T12:26:41;3.90;;;1.08;;
78672;SDS011;67988;60.086;30.354;2023-07-29T12:29:11;8.70;;;1.35;;
78672;SDS011;67988;60.086;30.354;2023-07-29T12:31:39;4.55;;;0.82;;
78672;SDS011;67988;60.086;30.354;2023-07-29T12:34:06;5.15;;;1.00;;
78672;SDS011;67988;60.086;30.354;2023-07-29T12:36:43;3.65;;;0.90;;
78672;SDS011;67988;60.086;30.354;2023-07-29T12:39:18;10.23;;;1.55;;
78672;SDS011;67988;60.086;30.354;2023-07-29T12:41:48;3.00;;;0.93;;
78672;SDS011;67988;60.086;30.354;2023-07-29T12:44:16;3.05;;;0.70;;
78672;SDS011;67988;60.086;30.354;2023-07-29T12:46:44;1.90;;;0.70;;
78672;SDS011;67988;60.086;30.354;2023-07-29T12:49:11;1.30;;;0.60;;
78672;SDS011;67988;60.086;30.354;2023-07-29T12:51:38;6.32;;;1.10;;
78672;SDS011;67988;60.086;30.354;2023-07-29T12:54:05;9.13;;;1.70;;
78672;SDS011;67988;60.086;30.354;2023-07-29T12:56:33;4.47;;;0.85;;
78672;SDS011;67988;60.086;30.354;2023-07-29T12:59:01;4.95;;;0.57;;
78672;SDS011;67988;60.086;30.354;2023-07-29T13:01:29;1.60;;;0.75;;
78672;SDS011;67988;60.086;30.354;2023-07-29T13:03:56;1.75;;;0.98;;
78672;SDS011;67988;60.086;30.354;2023-07-29T13:06:23;2.80;;;1.00;;
78672;SDS011;67988;60.086;30.354;2023-07-29T13:08:50;3.50;;;0.75;;
78672;SDS011;67988;60.086;30.354;2023-07-29T13:11:18;2.40;;;0.73;;
78672;SDS011;67988;60.086;30.354;2023-07-29T13:13:45;2.65;;;1.23;;
78672;SDS011;67988;60.086;30.354;2023-07-29T13:16:14;1.98;;;1.20;;
78672;SDS011;67988;60.086;30.354;2023-07-29T13:18:41;4.72;;;0.88;;
78672;SDS011;67988;60.086;30.354;2023-07-29T13:21:10;3.00;;;1.38;;
78672;SDS011;67988;60.086;30.354;2023-07-29T13:23:37;3.80;;;1.45;;
78672;SDS011;67988;60.086;30.354;2023-07-29T13:28:31;3.88;;;0.52;;
78672;SDS011;67988;60.086;30.354;2023-07-29T13:33:27;1.67;;;0.40;;
78672;SDS011;67988;60.086;30.354;2023-07-29T13:35:54;4.65;;;0.80;;
78672;SDS011;67988;60.086;30.354;2023-07-29T13:38:21;1.15;;;0.40;;
78672;SDS011;67988;60.086;30.354;2023-07-29T13:40:48;2.63;;;0.60;;
78672;SDS011;67988;60.086;30.354;2023-07-29T13:43:16;2.42;;;0.63;;
78672;SDS011;67988;60.086;30.354;2023-07-29T13:45:43;1.90;;;0.90;;
78672;SDS011;67988;60.086;30.354;2023-07-29T13:48:13;1.95;;;0.50;;
78672;SDS011;67988;60.086;30.354;2023-07-29T13:50:42;3.83;;;0.28;;
78672;SDS011;67988;60.086;30.354;2023-07-29T13:53:09;1.52;;;0.60;;
78672;SDS011;67988;60.086;30.354;2023-07-29T13:55:36;2.55;;;0.30;;
78672;SDS011;67988;60.086;30.354;2023-07-29T13:58:03;5.25;;;0.65;;
78672;SDS011;67988;60.086;30.354;2023-07-29T14:00:31;20.60;;;2.53;;
78672;SDS011;67988;60.086;30.354;2023-07-29T14:05:24;11.85;;;1.70;;
78672;SDS011;67988;60.086;30.354;2023-07-29T14:07:53;4.38;;;0.73;;
78672;SDS011;67988;60.086;30.354;2023-07-29T14:10:20;2.20;;;0.65;;
78672;SDS011;67988;60.086;30.354;2023-07-29T14:12:47;10.23;;;1.73;;
78672;SDS011;67988;60.086;30.354;2023-07-29T14:15:14;4.15;;;0.95;;
78672;SDS011;67988;60.086;30.354;2023-07-29T14:20:09;2.67;;;0.70;;
78672;SDS011;67988;60.086;30.354;2023-07-29T14:22:36;17.02;;;1.40;;
78672;SDS011;67988;60.086;30.354;2023-07-29T14:27:33;5.65;;;1.00;;
78672;SDS011;67988;60.086;30.354;2023-07-29T14:32:27;2.58;;;0.95;;
78672;SDS011;67988;60.086;30.354;2023-07-29T14:34:54;2.55;;;0.40;;
78672;SDS011;67988;60.086;30.354;2023-07-29T14:37:21;1.17;;;0.40;;
78672;SDS011;67988;60.086;30.354;2023-07-29T14:42:17;2.28;;;0.40;;
78672;SDS011;67988;60.086;30.354;2023-07-29T14:44:44;1.92;;;0.57;;
78672;SDS011;67988;60.086;30.354;2023-07-29T14:47:11;6.53;;;0.85;;
78672;SDS011;67988;60.086;30.354;2023-07-29T14:49:38;6.28;;;1.15;;
78672;SDS011;67988;60.086;30.354;2023-07-29T14:54:32;2.75;;;0.88;;
78672;SDS011;67988;60.086;30.354;2023-07-29T14:59:28;2.65;;;0.75;;
78672;SDS011;67988;60.086;30.354;2023-07-29T15:01:55;2.80;;;0.50;;
78672;SDS011;67988;60.086;30.354;2023-07-29T15:04:22;10.10;;;1.25;;
78672;SDS011;67988;60.086;30.354;2023-07-29T15:06:50;3.30;;;0.95;;
78672;SDS011;67988;60.086;30.354;2023-07-29T15:09:18;10.63;;;1.02;;
78672;SDS011;67988;60.086;30.354;2023-07-29T15:14:12;8.27;;;1.15;;
78672;SDS011;67988;60.086;30.354;2023-07-29T15:16:41;3.22;;;0.50;;
78672;SDS011;67988;60.086;30.354;2023-07-29T15:19:08;4.80;;;0.47;;
78672;SDS011;67988;60.086;30.354;2023-07-29T15:24:02;5.47;;;0.52;;
78672;SDS011;67988;60.086;30.354;2023-07-29T15:26:29;1.85;;;0.45;;
78672;SDS011;67988;60.086;30.354;2023-07-29T15:31:24;4.60;;;0.73;;
78672;SDS011;67988;60.086;30.354;2023-07-29T15:33:52;3.95;;;1.77;;
78672;SDS011;67988;60.086;30.354;2023-07-29T15:36:20;2.10;;;0.65;;
78672;SDS011;67988;60.086;30.354;2023-07-29T15:41:14;4.50;;;0.63;;
78672;SDS011;67988;60.086;30.354;2023-07-29T15:43:41;1.15;;;0.45;;
78672;SDS011;67988;60.086;30.354;2023-07-29T15:46:08;1.10;;;0.30;;
78672;SDS011;67988;60.086;30.354;2023-07-29T15:48:35;2.15;;;0.45;;
78672;SDS011;67988;60.086;30.354;2023-07-29T15:51:04;1.52;;;0.50;;
78672;SDS011;67988;60.086;30.354;2023-07-29T15:53:31;2.90;;;0.52;;
78672;SDS011;67988;60.086;30.354;2023-07-29T15:55:58;1.95;;;0.32;;
78672;SDS011;67988;60.086;30.354;2023-07-29T16:00:52;2.03;;;0.52;;